Time;durP1;ratioP1;P1;durP2;ratioP2;P2;SDS_P1;SDS_P2;PMS_P1;PMS_P2;Temp;Humidity;BMP_temperature;BMP_pressure;BME280_temperature;BME280_humidity;BME280_pressure;Samples;Min_cycle;Max_cycle;Signal;HPM_P1;HPM_P2
2022/10/09 00:03:42;;;;;;;0.10;0.10;;;;;;;12.57;55.76;98843.47;8413429;28;20377;-78
2022/10/09 00:07:45;;;;;;;0.10;0.10;;;;;;;12.57;55.17;98840.03;8413406;28;22660;-78
2022/10/09 00:11:48;;;;;;;0.10;0.10;;;;;;;12.43;55.60;98837.94;8412911;28;20231;-78
2022/10/09 00:15:51;;;;;;;0.10;0.10;;;;;;;12.39;55.18;98838.97;8413060;28;20234;-78
2022/10/09 00:19:55;;;;;;;0.10;0.10;;;;;;;12.31;56.10;98847.06;8413124;28;20519;-78
2022/10/09 00:24:00;;;;;;;0.10;0.10;;;;;;;12.24;56.18;98840.38;8413097;28;20401;-77
2022/10/09 00:28:03;;;;;;;0.10;0.10;;;;;;;12.22;55.65;98842.19;8413179;28;20421;-77
2022/10/09 00:32:06;;;;;;;0.10;0.10;;;;;;;12.21;55.80;98840.53;8412833;28;20234;-78
2022/10/09 00:36:13;;;;;;;0.10;0.10;;;;;;;12.20;56.03;98844.00;8412728;28;20465;-78
2022/10/09 00:40:16;;;;;;;0.10;0.10;;;;;;;12.23;55.53;98843.91;8412849;28;20231;-78
2022/10/09 00:44:48;;;;;;;0.10;0.10;;;;;;;12.26;54.92;98842.03;8412581;28;20275;-78
2022/10/09 00:48:57;;;;;;;0.10;0.10;;;;;;;12.22;55.38;98843.06;8415455;28;20226;-77
2022/10/09 00:53:02;;;;;;;0.10;0.10;;;;;;;12.16;55.84;98837.25;8419592;28;20222;-78
2022/10/09 00:57:05;;;;;;;0.10;0.10;;;;;;;12.21;55.92;98835.31;8419450;28;20230;-77
2022/10/09 01:01:08;;;;;;;0.10;0.10;;;;;;;12.21;55.71;98833.56;8419028;28;20238;-78
2022/10/09 01:05:10;;;;;;;0.10;0.10;;;;;;;12.10;55.42;98827.94;8419122;28;20230;-77
2022/10/09 01:09:18;;;;;;;0.10;0.10;;;;;;;12.06;54.75;98822.00;8419110;28;20239;-78
2022/10/09 01:13:27;;;;;;;0.10;0.10;;;;;;;11.99;55.14;98823.13;8418788;28;20234;-78
2022/10/09 01:17:34;;;;;;;0.10;0.10;;;;;;;11.96;55.57;98822.41;8418058;28;20401;-78
2022/10/09 01:21:41;;;;;;;0.10;0.10;;;;;;;11.84;56.54;98821.03;8418692;28;20227;-78
2022/10/09 01:25:54;;;;;;;0.10;0.10;;;;;;;11.86;56.26;98825.28;8418674;28;20463;-77
2022/10/09 01:30:01;;;;;;;0.10;0.10;;;;;;;11.83;56.34;98817.59;8418306;28;20526;-77
2022/10/09 01:34:03;;;;;;;0.10;0.10;;;;;;;11.85;56.66;98815.81;8418264;28;20222;-77
2022/10/09 01:38:06;;;;;;;0.10;0.10;;;;;;;11.87;56.71;98815.75;8418161;28;20522;-77
2022/10/09 01:42:10;;;;;;;0.10;0.10;;;;;;;11.80;57.07;98802.13;8418158;28;20564;-77
2022/10/09 01:46:22;;;;;;;0.10;0.10;;;;;;;11.61;57.78;98803.69;8417937;28;20250;-77
2022/10/09 01:50:28;;;;;;;0.20;0.20;;;;;;;11.59;58.02;98808.94;8417758;28;20235;-77
2022/10/09 01:54:35;;;;;;;0.30;0.30;;;;;;;11.64;58.73;98801.84;8417136;28;20526;-75
2022/10/09 01:58:40;;;;;;;0.10;0.10;;;;;;;11.60;58.50;98802.84;8417053;28;20230;-77
2022/10/09 02:02:45;;;;;;;0.10;0.10;;;;;;;11.60;58.15;98797.66;8417115;28;20508;-77
2022/10/09 02:06:49;;;;;;;0.10;0.10;;;;;;;11.65;58.32;98793.19;8417128;28;20227;-78
2022/10/09 02:10:55;;;;;;;0.10;0.10;;;;;;;11.65;57.37;98789.72;8416837;28;20235;-76
2022/10/09 02:14:58;;;;;;;0.00;0.00;;;;;;;11.55;57.18;98789.19;8416357;28;20234;-76
2022/10/09 02:19:04;;;;;;;0.10;0.10;;;;;;;11.67;56.94;98781.00;8415759;28;20242;-76
2022/10/09 02:23:07;;;;;;;0.10;0.10;;;;;;;11.67;56.00;98778.41;8416217;28;20234;-76
2022/10/09 02:27:11;;;;;;;0.10;0.10;;;;;;;11.54;56.10;98785.75;8416377;28;20317;-77
2022/10/09 02:31:19;;;;;;;0.10;0.10;;;;;;;11.46;55.81;98790.38;8416288;28;20231;-77
2022/10/09 02:35:23;;;;;;;0.10;0.10;;;;;;;11.54;55.96;98783.16;8416053;28;20243;-78
2022/10/09 02:39:26;;;;;;;0.10;0.10;;;;;;;11.32;56.07;98790.00;8415383;28;20231;-77
2022/10/09 02:43:28;;;;;;;0.10;0.10;;;;;;;11.35;55.78;98782.97;8415928;28;20462;-77
2022/10/09 02:47:31;;;;;;;0.10;0.10;;;;;;;11.28;55.67;98784.06;8415675;28;20241;-77
2022/10/09 02:51:36;;;;;;;0.10;0.10;;;;;;;11.16;55.32;98779.31;8415639;28;20242;-77
2022/10/09 02:55:39;;;;;;;0.10;0.10;;;;;;;11.23;55.89;98787.72;8415530;28;20395;-78
2022/10/09 02:59:42;;;;;;;0.10;0.10;;;;;;;11.33;55.01;98789.13;8415368;28;20230;-78
2022/10/09 03:03:45;;;;;;;0.10;0.10;;;;;;;11.12;55.12;98782.91;8415266;28;20246;-78
2022/10/09 03:07:51;;;;;;;0.10;0.10;;;;;;;11.07;55.32;98795.16;8415254;28;20234;-77
2022/10/09 03:11:54;;;;;;;0.10;0.10;;;;;;;11.10;55.68;98793.31;8414638;28;20250;-78
2022/10/09 03:16:02;;;;;;;0.10;0.10;;;;;;;11.17;55.54;98790.53;8414868;28;20250;-77
2022/10/09 03:20:06;;;;;;;0.10;0.10;;;;;;;11.10;55.67;98788.13;8415023;28;20230;-77
2022/10/09 03:24:11;;;;;;;0.10;0.10;;;;;;;11.20;55.33;98788.66;8415349;28;20268;-77
2022/10/09 03:28:14;;;;;;;0.10;0.10;;;;;;;11.12;55.48;98788.94;8414580;28;20234;-77
2022/10/09 03:32:16;;;;;;;0.10;0.10;;;;;;;11.04;55.56;98792.66;8414643;28;20466;-77
2022/10/09 03:36:19;;;;;;;0.10;0.10;;;;;;;11.05;55.08;98796.97;8414936;28;20569;-77
2022/10/09 03:40:23;;;;;;;0.10;0.10;;;;;;;10.96;55.39;98792.91;8414801;28;20272;-77
2022/10/09 03:44:26;;;;;;;0.10;0.10;;;;;;;11.00;55.38;98794.50;8414032;28;20246;-76
2022/10/09 03:48:28;;;;;;;0.10;0.10;;;;;;;10.99;55.48;98794.59;8414346;28;20522;-76
2022/10/09 03:52:31;;;;;;;0.10;0.10;;;;;;;11.04;55.47;98793.53;8414429;28;20238;-77
2022/10/09 03:56:35;;;;;;;0.10;0.10;;;;;;;10.92;56.35;98797.34;8414409;28;20320;-77
2022/10/09 04:00:38;;;;;;;0.10;0.10;;;;;;;10.95;56.85;98794.66;8414104;28;20280;-77
2022/10/09 04:04:40;;;;;;;0.10;0.10;;;;;;;10.98;57.41;98795.47;8414314;28;20549;-77
2022/10/09 04:08:43;;;;;;;0.10;0.10;;;;;;;11.06;57.16;98793.47;8413891;28;20242;-77
2022/10/09 04:12:47;;;;;;;0.10;0.10;;;;;;;11.05;57.31;98791.78;8414093;28;20300;-77
2022/10/09 04:16:50;;;;;;;0.10;0.10;;;;;;;10.96;57.24;98798.09;8414074;28;20231;-77
2022/10/09 04:20:55;;;;;;;0.10;0.10;;;;;;;10.88;57.11;98794.91;8413725;28;20244;-78
2022/10/09 04:24:58;;;;;;;0.10;0.10;;;;;;;10.98;57.05;98785.94;8412934;28;20227;-77
2022/10/09 04:29:02;;;;;;;0.10;0.10;;;;;;;10.92;56.08;98784.38;8413665;28;20426;-77
2022/10/09 04:33:05;;;;;;;0.10;0.10;;;;;;;10.95;55.26;98791.25;8413308;28;20237;-77
2022/10/09 04:37:14;;;;;;;0.10;0.10;;;;;;;10.87;55.29;98795.81;8413564;28;20231;-77
2022/10/09 04:41:17;;;;;;;0.10;0.10;;;;;;;10.81;55.32;98793.41;8413464;28;20233;-77
2022/10/09 04:45:21;;;;;;;0.10;0.10;;;;;;;10.85;55.26;98797.59;8413611;28;20461;-77
2022/10/09 04:49:23;;;;;;;0.10;0.10;;;;;;;10.66;55.77;98794.75;8413177;28;20234;-77
2022/10/09 04:53:26;;;;;;;0.10;0.10;;;;;;;10.81;55.35;98796.00;8412741;28;20239;-77
2022/10/09 04:57:29;;;;;;;0.10;0.10;;;;;;;10.64;55.76;98791.34;8413221;28;20432;-77
2022/10/09 05:01:33;;;;;;;0.10;0.10;;;;;;;10.61;55.31;98789.72;8413074;28;20540;-77
2022/10/09 05:05:40;;;;;;;0.10;0.10;;;;;;;10.66;55.31;98784.38;8413080;28;20241;-77
2022/10/09 05:09:43;;;;;;;0.10;0.10;;;;;;;10.57;55.21;98783.78;8412920;28;20231;-77
2022/10/09 05:13:47;;;;;;;0.10;0.10;;;;;;;10.46;55.11;98780.69;8413001;28;20600;-77
2022/10/09 05:17:52;;;;;;;0.10;0.10;;;;;;;10.50;54.97;98791.78;8413006;28;20231;-77
2022/10/09 05:21:55;;;;;;;0.10;0.10;;;;;;;10.47;54.69;98794.47;8412575;28;20245;-77
2022/10/09 05:25:59;;;;;;;0.10;0.10;;;;;;;10.47;54.40;98797.94;8412238;28;20235;-77
2022/10/09 05:30:02;;;;;;;0.10;0.10;;;;;;;10.39;54.29;98805.06;8412565;28;20227;-77
2022/10/09 05:34:06;;;;;;;0.10;0.10;;;;;;;10.41;54.23;98805.03;8414216;28;20234;-77
2022/10/09 05:38:09;;;;;;;0.10;0.10;;;;;;;10.33;54.37;98810.44;8418602;28;20258;-77
2022/10/09 05:42:11;;;;;;;0.10;0.10;;;;;;;10.44;54.65;98816.13;8418612;28;20255;-77
2022/10/09 05:46:16;;;;;;;0.10;0.10;;;;;;;10.43;54.44;98814.44;8418714;28;20268;-76
2022/10/09 05:50:21;;;;;;;0.10;0.10;;;;;;;10.33;54.67;98816.44;8418574;28;20233;-77
2022/10/09 05:54:23;;;;;;;0.10;0.10;;;;;;;10.33;54.84;98818.19;8418224;28;20239;-78
2022/10/09 05:58:26;;;;;;;0.10;0.10;;;;;;;10.29;54.47;98813.97;8417594;28;20240;-76
2022/10/09 06:02:29;;;;;;;0.10;0.10;;;;;;;10.31;55.04;98813.06;8417938;28;20227;-76
2022/10/09 06:06:36;;;;;;;0.10;0.10;;;;;;;10.40;54.66;98811.94;8417662;28;20233;-76
2022/10/09 06:10:39;;;;;;;0.10;0.10;;;;;;;10.49;54.51;98803.91;8417783;28;20243;-76
2022/10/09 06:14:41;;;;;;;0.10;0.10;;;;;;;10.59;54.11;98816.56;8417564;28;20262;-76
2022/10/09 06:18:46;;;;;;;0.10;0.10;;;;;;;10.68;53.74;98814.53;8417913;28;20440;-74
2022/10/09 06:22:52;;;;;;;0.10;0.10;;;;;;;10.84;53.78;98811.47;8417392;28;20445;-77
2022/10/09 06:26:55;;;;;;;0.10;0.10;;;;;;;11.07;53.21;98806.38;8417493;28;20442;-77
2022/10/09 06:31:01;;;;;;;0.10;0.10;;;;;;;11.15;53.40;98812.13;8417259;28;20415;-75
2022/10/09 06:35:05;;;;;;;0.10;0.10;;;;;;;11.34;52.83;98811.53;8417001;28;20227;-78
2022/10/09 06:39:10;;;;;;;0.10;0.10;;;;;;;11.41;53.15;98818.22;8416789;28;20231;-78
2022/10/09 06:43:12;;;;;;;0.10;0.10;;;;;;;11.49;53.63;98813.59;8417059;28;20557;-76
2022/10/09 06:47:15;;;;;;;0.10;0.10;;;;;;;11.43;53.42;98821.59;8416026;28;20269;-78
2022/10/09 06:51:20;;;;;;;0.10;0.10;;;;;;;11.56;55.10;98814.25;8417173;28;20227;-77
2022/10/09 06:55:24;;;;;;;0.10;0.10;;;;;;;11.67;53.36;98819.91;8417390;28;20241;-78
2022/10/09 06:59:30;;;;;;;0.10;0.10;;;;;;;11.61;53.86;98824.44;8416452;28;20254;-78
2022/10/09 07:03:33;;;;;;;0.10;0.10;;;;;;;11.66;54.79;98822.56;8416593;28;20253;-78
2022/10/09 07:07:40;;;;;;;0.10;0.10;;;;;;;11.85;55.36;98822.75;8416281;28;20238;-78
2022/10/09 07:11:45;;;;;;;0.10;0.10;;;;;;;11.97;56.00;98837.06;8417239;28;20563;-78
2022/10/09 07:15:47;;;;;;;0.10;0.10;;;;;;;12.06;56.01;98831.53;8415811;28;20231;-78
2022/10/09 07:19:51;;;;;;;0.10;0.10;;;;;;;12.31;54.99;98828.88;8415501;28;20269;-78
2022/10/09 07:23:54;;;;;;;0.10;0.10;;;;;;;12.34;55.41;98828.78;8415544;28;20229;-78
2022/10/09 07:27:58;;;;;;;0.10;0.10;;;;;;;12.44;54.98;98835.28;8415205;28;20391;-77
2022/10/09 07:32:01;;;;;;;0.10;0.10;;;;;;;12.73;55.17;98827.28;8415337;28;20246;-77
2022/10/09 07:36:10;;;;;;;0.10;0.10;;;;;;;12.99;54.80;98831.47;8415108;28;20553;-77
2022/10/09 07:40:13;;;;;;;0.10;0.10;;;;;;;13.33;54.18;98828.34;8414760;28;20231;-77
2022/10/09 07:44:17;;;;;;;0.10;0.10;;;;;;;13.57;54.02;98821.22;8415114;28;20223;-77
2022/10/09 07:48:20;;;;;;;0.03;0.03;;;;;;;13.95;53.03;98818.72;8414834;28;20254;-77
2022/10/09 07:52:23;;;;;;;0.10;0.10;;;;;;;14.48;52.55;98814.59;8414314;28;20227;-78
2022/10/09 07:56:27;;;;;;;0.10;0.10;;;;;;;14.75;50.45;98814.22;8413991;28;20422;-76
2022/10/09 08:00:32;;;;;;;0.03;0.03;;;;;;;15.12;49.53;98813.28;8414412;28;20227;-78
2022/10/09 08:04:36;;;;;;;0.00;0.00;;;;;;;15.56;49.51;98804.97;8414281;28;20284;-77
2022/10/09 08:08:39;;;;;;;0.00;0.00;;;;;;;16.02;49.22;98815.66;8414132;28;20235;-77
2022/10/09 08:12:42;;;;;;;0.10;0.10;;;;;;;16.16;47.70;98811.47;8413707;28;20246;-78
2022/10/09 08:16:46;;;;;;;0.00;0.00;;;;;;;16.63;47.72;98804.59;8414017;28;20518;-78
2022/10/09 08:20:57;;;;;;;0.00;0.00;;;;;;;17.05;46.72;98796.09;8413798;28;20233;-78
2022/10/09 08:24:59;;;;;;;0.00;0.00;;;;;;;17.34;45.95;98791.78;8413983;28;20226;-78
2022/10/09 08:29:04;;;;;;;0.00;0.00;;;;;;;17.84;52.99;98788.81;8413923;28;20249;-78
2022/10/09 08:33:08;;;;;;;0.00;0.00;;;;;;;18.31;46.32;98785.91;8414795;28;20514;-78
2022/10/09 08:37:11;;;;;;;0.00;0.00;;;;;;;18.63;44.05;98787.44;8413263;28;20234;-78
2022/10/09 08:41:24;;;;;;;0.00;0.00;;;;;;;18.97;43.56;98790.53;8413493;28;20406;-77
2022/10/09 08:45:27;;;;;;;0.00;0.00;;;;;;;18.67;40.97;98781.88;8413367;28;20238;-77
2022/10/09 08:49:36;;;;;;;0.00;0.00;;;;;;;19.25;40.86;98779.88;8413626;28;20341;-78
2022/10/09 08:53:43;;;;;;;0.00;0.00;;;;;;;19.78;40.22;98774.56;8413284;28;20239;-78
2022/10/09 08:57:48;;;;;;;0.00;0.00;;;;;;;20.33;40.26;98771.59;8413494;28;20238;-78
2022/10/09 09:02:00;;;;;;;0.10;0.10;;;;;;;20.67;39.38;98765.59;8413110;28;20231;-78
2022/10/09 09:06:10;;;;;;;0.00;0.00;;;;;;;20.86;38.02;98754.56;8413294;28;20235;-78
2022/10/09 09:10:19;;;;;;;0.00;0.00;;;;;;;20.91;37.29;98754.22;8416672;28;20256;-79
2022/10/09 09:14:29;;;;;;;0.00;0.00;;;;;;;20.54;38.33;98756.06;8419387;28;20462;-79
2022/10/09 09:18:38;;;;;;;0.00;0.00;;;;;;;21.62;39.06;98752.38;8418897;28;20233;-78
2022/10/09 09:22:48;;;;;;;0.00;0.00;;;;;;;21.59;36.93;98754.41;8419641;28;20510;-79
2022/10/09 09:26:55;;;;;;;0.00;0.00;;;;;;;21.89;36.61;98751.16;8419115;28;20334;-79
2022/10/09 09:31:01;;;;;;;0.00;0.00;;;;;;;21.73;35.88;98745.44;8419042;28;20237;-79
2022/10/09 09:35:12;;;;;;;0.00;0.00;;;;;;;20.94;37.81;98743.44;8418957;28;20242;-80
2022/10/09 09:39:16;;;;;;;0.00;0.00;;;;;;;21.44;36.56;98741.47;8418868;28;20238;-79
2022/10/09 09:43:40;;;;;;;0.00;0.00;;;;;;;21.66;35.32;98738.00;8418222;28;20301;-79
2022/10/09 09:47:45;;;;;;;0.00;0.00;;;;;;;22.01;34.71;98737.03;8418758;28;20456;-79
2022/10/09 09:51:50;;;;;;;0.00;0.00;;;;;;;21.98;33.41;98734.63;8418627;28;20226;-79
2022/10/09 09:55:54;;;;;;;0.00;0.00;;;;;;;21.88;32.46;98725.78;8418525;28;20295;-80
2022/10/09 10:00:08;;;;;;;0.00;0.00;;;;;;;21.35;32.52;98736.03;8418055;28;20541;-78
2022/10/09 10:04:19;;;;;;;0.00;0.00;;;;;;;21.10;33.29;98727.38;8418319;28;20276;-79
2022/10/09 10:08:25;;;;;;;0.00;0.00;;;;;;;21.65;32.83;98722.31;8418040;28;20243;-79
2022/10/09 10:12:29;;;;;;;0.00;0.00;;;;;;;20.73;33.78;98719.56;8417564;28;20235;-78
2022/10/09 10:16:33;;;;;;;0.00;0.00;;;;;;;22.07;33.02;98711.97;8417989;28;20238;-79
2022/10/09 10:20:43;;;;;;;0.00;0.00;;;;;;;21.71;32.92;98697.28;8416803;28;20351;-80
2022/10/09 10:24:48;;;;;;;0.00;0.00;;;;;;;20.69;34.05;98692.66;8418033;28;20252;-80
2022/10/09 10:28:56;;;;;;;0.00;0.00;;;;;;;21.71;33.18;98698.13;8417640;28;20219;-77
2022/10/09 10:33:02;;;;;;;0.00;0.00;;;;;;;20.88;34.27;98680.75;8418064;28;20218;-77
2022/10/09 10:37:14;;;;;;;0.00;0.00;;;;;;;20.80;33.89;98683.94;8417305;28;20229;-79
2022/10/09 10:41:21;;;;;;;0.00;0.00;;;;;;;21.52;32.86;98674.16;8417061;28;20234;-79
2022/10/09 10:45:29;;;;;;;0.00;0.00;;;;;;;21.78;34.09;98672.09;8416978;28;20530;-78
2022/10/09 10:49:32;;;;;;;0.00;0.00;;;;;;;20.82;34.07;98662.78;8416416;28;20246;-78
2022/10/09 10:53:47;;;;;;;0.00;0.00;;;;;;;21.01;34.36;98655.16;8416728;28;20294;-79
2022/10/09 10:57:56;;;;;;;0.00;0.00;;;;;;;19.99;34.71;98653.94;8417089;28;20262;-77
2022/10/09 11:02:27;;;;;;;0.00;0.00;;;;;;;20.45;35.27;98644.47;8416466;28;20237;-78
2022/10/09 11:06:39;;;;;;;0.00;0.00;;;;;;;20.67;36.09;98641.91;8415922;28;20234;-75
2022/10/09 11:10:57;;;;;;;0.00;0.00;;;;;;;20.68;33.94;98637.50;8415976;28;20531;-76
2022/10/09 11:15:05;;;;;;;0.00;0.00;;;;;;;20.75;34.31;98643.13;8415791;28;20242;-75
2022/10/09 11:19:32;;;;;;;0.00;0.00;;;;;;;20.31;34.45;98627.06;8415630;28;20241;-76
2022/10/09 11:23:45;;;;;;;0.00;0.00;;;;;;;20.07;35.18;98612.13;8415294;28;20260;-77
2022/10/09 11:27:51;;;;;;;0.00;0.00;;;;;;;19.87;35.13;98610.13;8415370;28;20234;-79
2022/10/09 11:31:57;;;;;;;0.00;0.00;;;;;;;20.15;34.56;98608.94;8415096;28;20421;-80
2022/10/09 11:36:03;;;;;;;0.00;0.00;;;;;;;20.83;34.27;98602.13;8415345;28;20219;-80
2022/10/09 11:40:13;;;;;;;0.00;0.00;;;;;;;19.97;33.77;98599.78;8415145;28;20230;-79
2022/10/09 11:44:25;;;;;;;0.00;0.00;;;;;;;20.71;33.02;98584.63;8415070;28;20357;-79
2022/10/09 11:48:33;;;;;;;0.00;0.00;;;;;;;20.91;31.97;98585.75;8414258;28;20223;-81
2022/10/09 11:52:43;;;;;;;0.00;0.00;;;;;;;20.77;31.49;98584.19;8415071;28;20235;-81
2022/10/09 11:56:54;;;;;;;0.00;0.00;;;;;;;20.96;31.49;98574.84;8414480;28;20236;-80
2022/10/09 12:01:11;;;;;;;0.00;0.00;;;;;;;20.65;30.73;98562.25;8414287;28;20331;-80
2022/10/09 12:05:34;;;;;;;0.00;0.00;;;;;;;20.40;32.14;98557.97;8414461;28;20424;-78
2022/10/09 12:09:40;;;;;;;0.00;0.00;;;;;;;20.42;32.05;98556.06;8413942;28;20243;-79
2022/10/09 12:13:47;;;;;;;0.00;0.00;;;;;;;20.51;33.48;98550.13;8413982;28;20231;-79
2022/10/09 12:17:50;;;;;;;0.20;0.10;;;;;;;20.65;31.94;98545.63;8414123;28;20463;-79
2022/10/09 12:22:04;;;;;;;0.00;0.00;;;;;;;20.65;31.97;98541.19;8414011;28;20264;-80
2022/10/09 12:26:10;;;;;;;0.00;0.00;;;;;;;20.53;31.72;98534.22;8413994;28;20222;-80
2022/10/09 12:30:19;;;;;;;0.00;0.00;;;;;;;20.47;31.65;98527.63;8413960;28;20227;-79
2022/10/09 12:34:24;;;;;;;0.00;0.00;;;;;;;20.97;31.45;98522.09;8413821;28;20235;-79
2022/10/09 12:38:30;;;;;;;0.00;0.00;;;;;;;21.00;30.79;98511.31;8413099;28;20253;-79
2022/10/09 12:42:34;;;;;;;0.00;0.00;;;;;;;21.35;31.12;98512.94;8413201;28;20241;-79
2022/10/09 12:46:38;;;;;;;0.00;0.00;;;;;;;21.72;30.87;98507.34;8412839;28;20231;-78
2022/10/09 12:50:41;;;;;;;0.00;0.00;;;;;;;21.36;30.73;98488.28;8413459;28;20235;-82
2022/10/09 12:54:44;;;;;;;0.00;0.00;;;;;;;21.25;30.42;98494.41;8413626;28;20234;-81
2022/10/09 12:58:49;;;;;;;0.00;0.00;;;;;;;21.17;29.96;98491.56;8414073;28;20233;-79
2022/10/09 13:02:52;;;;;;;0.00;0.00;;;;;;;21.55;30.43;98478.91;8413546;28;20529;-79
2022/10/09 13:06:56;;;;;;;0.00;0.00;;;;;;;22.01;30.05;98481.25;8413336;28;20244;-77
2022/10/09 13:11:08;;;;;;;0.00;0.00;;;;;;;21.62;30.09;98465.09;8413453;28;20238;-77
2022/10/09 13:15:29;;;;;;;0.00;0.00;;;;;;;21.66;29.73;98461.25;8413152;28;20230;-77
2022/10/09 13:19:34;;;;;;;0.00;0.00;;;;;;;21.31;28.80;98452.75;8412565;28;20231;-77
2022/10/09 13:23:37;;;;;;;0.00;0.00;;;;;;;21.76;29.36;98456.09;8413136;28;20230;-78
2022/10/09 13:27:40;;;;;;;0.00;0.00;;;;;;;21.99;29.26;98445.41;8412664;28;20227;-80
2022/10/09 13:31:44;;;;;;;0.00;0.00;;;;;;;22.22;29.03;98451.41;8413216;28;20560;-77
2022/10/09 13:35:47;;;;;;;0.00;0.00;;;;;;;22.22;29.23;98444.31;8412903;28;20227;-77
2022/10/09 13:39:53;;;;;;;0.00;0.00;;;;;;;22.38;30.02;98450.94;8412708;28;20233;-79
2022/10/09 13:43:56;;;;;;;0.00;0.00;;;;;;;21.71;28.99;98439.81;8412649;28;20227;-79
2022/10/09 13:48:00;;;;;;;0.00;0.00;;;;;;;21.31;29.51;98444.84;8412727;28;20229;-77
2022/10/09 13:52:03;;;;;;;0.00;0.00;;;;;;;21.74;28.88;98428.16;8412693;28;20226;-77
2022/10/09 13:56:08;;;;;;;0.00;0.00;;;;;;;21.93;29.36;98425.66;8416030;28;20417;-77
2022/10/09 14:00:12;;;;;;;0.00;0.00;;;;;;;21.81;29.32;98410.88;8418164;28;20233;-78
2022/10/09 14:04:16;;;;;;;0.00;0.00;;;;;;;22.12;27.84;98410.94;8417795;28;20557;-77
2022/10/09 14:08:19;;;;;;;0.00;0.00;;;;;;;22.10;28.21;98411.03;8418063;28;20272;-77
2022/10/09 14:12:21;;;;;;;0.00;0.00;;;;;;;20.99;29.11;98393.78;8418004;28;20239;-78
2022/10/09 14:16:24;;;;;;;0.00;0.00;;;;;;;21.15;28.69;98397.81;8417656;28;20241;-80
2022/10/09 14:20:29;;;;;;;0.00;0.00;;;;;;;21.60;27.95;98395.88;8417249;28;20233;-79
2022/10/09 14:24:33;;;;;;;0.00;0.00;;;;;;;21.24;27.99;98387.38;8417620;28;20422;-81
2022/10/09 14:28:35;;;;;;;0.00;0.00;;;;;;;20.70;29.68;98393.50;8417397;28;20428;-86
2022/10/09 14:32:38;;;;;;;0.00;0.00;;;;;;;21.25;29.53;98385.59;8417653;28;20428;-80
2022/10/09 14:36:42;;;;;;;0.00;0.00;;;;;;;20.37;30.41;98382.00;8416982;28;20560;-76
2022/10/09 14:40:45;;;;;;;0.00;0.00;;;;;;;20.67;30.34;98375.31;8417118;28;20246;-77
2022/10/09 14:44:48;;;;;;;0.00;0.00;;;;;;;20.18;30.06;98374.72;8417257;28;20519;-77
2022/10/09 14:48:54;;;;;;;0.00;0.00;;;;;;;20.60;28.97;98364.44;8416724;28;20237;-77
2022/10/09 14:52:58;;;;;;;0.00;0.00;;;;;;;20.45;29.41;98376.97;8416812;28;20230;-77
2022/10/09 14:57:00;;;;;;;0.00;0.00;;;;;;;20.41;29.93;98365.03;8416759;28;20424;-77
2022/10/09 15:01:04;;;;;;;0.00;0.00;;;;;;;20.56;29.71;98368.25;8416576;28;20241;-78
2022/10/09 15:05:07;;;;;;;0.00;0.00;;;;;;;20.92;30.03;98365.44;8416226;28;20529;-78
2022/10/09 15:09:11;;;;;;;0.00;0.00;;;;;;;20.50;29.44;98352.94;8415524;28;20417;-77
2022/10/09 15:13:14;;;;;;;0.00;0.00;;;;;;;19.52;30.12;98356.88;8415909;28;20453;-77
2022/10/09 15:17:17;;;;;;;0.00;0.00;;;;;;;19.39;30.06;98353.50;8415735;28;20238;-75
2022/10/09 15:21:22;;;;;;;0.00;0.00;;;;;;;19.47;31.52;98347.66;8415704;28;20236;-77
2022/10/09 15:25:30;;;;;;;0.00;0.00;;;;;;;18.82;31.38;98349.75;8415544;28;20502;-76
2022/10/09 15:29:32;;;;;;;0.00;0.00;;;;;;;18.56;31.72;98325.34;8415310;28;20566;-77
2022/10/09 15:33:35;;;;;;;0.00;0.00;;;;;;;18.88;31.95;98336.19;8415352;28;20236;-76
2022/10/09 15:37:38;;;;;;;0.00;0.00;;;;;;;18.72;32.47;98333.81;8415249;28;20237;-75
2022/10/09 15:41:42;;;;;;;0.00;0.00;;;;;;;18.65;35.48;98337.81;8414868;28;20295;-75
2022/10/09 15:45:46;;;;;;;0.00;0.00;;;;;;;18.61;33.08;98331.13;8414917;28;20236;-76
2022/10/09 15:49:48;;;;;;;0.00;0.00;;;;;;;18.70;33.55;98324.41;8414792;28;20226;-78
2022/10/09 15:53:55;;;;;;;0.00;0.00;;;;;;;18.38;33.16;98317.03;8414899;28;20238;-77
2022/10/09 15:57:59;;;;;;;0.00;0.00;;;;;;;18.51;33.26;98317.84;8414593;28;20227;-77
2022/10/09 16:02:02;;;;;;;0.00;0.00;;;;;;;18.33;34.31;98320.00;8414257;28;20227;-77
2022/10/09 16:06:07;;;;;;;0.00;0.00;;;;;;;18.12;33.82;98321.47;8414567;28;20222;-77
2022/10/09 16:10:10;;;;;;;0.00;0.00;;;;;;;17.83;34.98;98320.84;8414172;28;20276;-77
2022/10/09 16:14:14;;;;;;;0.00;0.00;;;;;;;17.81;35.10;98320.09;8414213;28;20480;-78
2022/10/09 16:18:19;;;;;;;0.00;0.00;;;;;;;17.98;35.61;98317.19;8413996;28;20234;-77
2022/10/09 16:22:22;;;;;;;0.00;0.00;;;;;;;17.99;35.71;98324.09;8413961;28;20424;-77
2022/10/09 16:26:25;;;;;;;0.00;0.00;;;;;;;17.62;36.33;98321.34;8414200;28;20235;-77
2022/10/09 16:30:31;;;;;;;0.10;0.10;;;;;;;17.83;37.18;98319.06;8413532;28;20529;-78
2022/10/09 16:34:33;;;;;;;0.00;0.00;;;;;;;17.82;37.11;98306.06;8413610;28;20234;-78
2022/10/09 16:38:36;;;;;;;0.00;0.00;;;;;;;17.72;37.03;98303.22;8413544;28;20253;-78
2022/10/09 16:42:39;;;;;;;0.00;0.00;;;;;;;17.55;37.10;98317.47;8413410;28;20306;-76
2022/10/09 16:46:43;;;;;;;0.00;0.00;;;;;;;17.62;37.28;98323.97;8413743;28;20256;-76
2022/10/09 16:50:46;;;;;;;0.00;0.00;;;;;;;17.58;37.89;98323.34;8413853;28;20222;-77
2022/10/09 16:54:49;;;;;;;0.00;0.00;;;;;;;17.45;38.43;98324.25;8413542;28;20228;-75
2022/10/09 16:58:54;;;;;;;0.00;0.00;;;;;;;17.43;38.42;98326.97;8413267;28;20242;-78
2022/10/09 17:02:58;;;;;;;0.00;0.00;;;;;;;17.36;38.31;98323.94;8413573;28;20231;-79
2022/10/09 17:07:01;;;;;;;0.00;0.00;;;;;;;17.18;39.14;98323.38;8413347;28;20232;-77
2022/10/09 17:11:06;;;;;;;0.00;0.00;;;;;;;17.10;39.35;98320.41;8412512;28;20234;-80
2022/10/09 17:15:11;;;;;;;0.00;0.00;;;;;;;16.98;39.35;98314.22;8413275;28;20230;-78
2022/10/09 17:19:15;;;;;;;0.00;0.00;;;;;;;17.02;39.66;98312.25;8413115;28;20222;-77
2022/10/09 17:23:18;;;;;;;0.00;0.00;;;;;;;16.95;40.63;98322.25;8413328;28;20227;-77
2022/10/09 17:27:21;;;;;;;0.00;0.00;;;;;;;16.84;41.03;98316.03;8413202;28;20233;-77
2022/10/09 17:31:24;;;;;;;0.00;0.00;;;;;;;16.77;41.30;98323.41;8416717;28;20241;-76
2022/10/09 17:35:28;;;;;;;0.00;0.00;;;;;;;16.85;41.49;98315.09;8418776;28;20296;-77
2022/10/09 17:39:31;;;;;;;0.00;0.00;;;;;;;16.83;41.98;98309.97;8409365;28;20235;-78
2022/10/09 17:43:34;;;;;;;0.00;0.00;;;;;;;16.84;42.34;98311.63;8418843;28;20242;-89
2022/10/09 17:47:37;;;;;;;0.00;0.00;;;;;;;16.81;42.31;98319.66;8419627;28;20579;-79
2022/10/09 17:51:41;;;;;;;0.00;0.00;;;;;;;16.72;42.46;98307.19;8419336;28;20314;-77
2022/10/09 17:55:44;;;;;;;0.00;0.00;;;;;;;16.73;42.83;98309.69;8418798;28;20235;-76
2022/10/09 17:59:47;;;;;;;0.00;0.00;;;;;;;16.52;43.59;98306.66;8419101;28;20231;-80
2022/10/09 18:03:50;;;;;;;0.00;0.00;;;;;;;16.57;43.80;98307.22;8418868;28;20280;-81
2022/10/09 18:07:54;;;;;;;0.00;0.00;;;;;;;16.41;44.00;98299.50;8419327;28;20227;-82
2022/10/09 18:11:57;;;;;;;0.00;0.00;;;;;;;16.15;44.29;98298.50;8419058;28;20241;-82
2022/10/09 18:16:00;;;;;;;0.00;0.00;;;;;;;15.92;44.22;98288.66;8420838;28;20237;-82
2022/10/09 18:20:04;;;;;;;0.00;0.00;;;;;;;15.87;44.58;98293.31;8418892;28;20230;-81
2022/10/09 18:24:09;;;;;;;0.00;0.00;;;;;;;15.85;44.52;98287.34;8419884;28;20514;-80
2022/10/09 18:28:12;;;;;;;0.00;0.00;;;;;;;16.21;56.52;98277.22;8419784;28;20226;-84
2022/10/09 18:32:15;;;;;;;0.00;0.00;;;;;;;16.22;46.99;98275.44;8418267;28;20344;-83
2022/10/09 18:36:21;;;;;;;0.00;0.00;;;;;;;16.30;44.88;98277.59;8417827;28;20231;-84
2022/10/09 18:40:25;;;;;;;0.00;0.00;;;;;;;16.11;44.68;98273.50;8417174;28;20231;-78
2022/10/09 18:44:32;;;;;;;0.00;0.00;;;;;;;15.98;44.77;98275.19;8416447;28;20276;-77
2022/10/09 18:48:38;;;;;;;0.10;0.10;;;;;;;16.17;44.55;98273.13;8417305;28;20238;-83
2022/10/09 18:52:41;;;;;;;0.10;0.10;;;;;;;16.02;45.05;98264.47;8416786;28;20233;-81
2022/10/09 18:56:46;;;;;;;0.00;0.00;;;;;;;16.47;44.70;98264.31;8416123;28;20408;-81
2022/10/09 19:00:49;;;;;;;0.00;0.00;;;;;;;16.09;46.28;98259.72;8416585;28;20254;-80
2022/10/09 19:04:53;;;;;;;0.00;0.00;;;;;;;16.12;46.12;98253.44;8416642;28;20384;-79
2022/10/09 19:08:59;;;;;;;0.00;0.00;;;;;;;15.98;46.49;98256.91;8416308;28;20235;-81
2022/10/09 19:13:03;;;;;;;0.00;0.00;;;;;;;16.00;45.67;98249.81;8416263;28;20230;-81
2022/10/09 19:17:06;;;;;;;0.00;0.00;;;;;;;15.95;46.13;98252.72;8416240;28;20227;-81